sensor_id;sensor_type;location;lat;lon;timestamp;temperature;humidity
14577;DHT22;7375;46.072;14.470;2022-10-10T00:01:08;20.90;89.50
14577;DHT22;7375;46.072;14.470;2022-10-10T00:03:35;20.90;89.50
14577;DHT22;7375;46.072;14.470;2022-10-10T00:06:02;20.90;89.60
14577;DHT22;7375;46.072;14.470;2022-10-10T00:08:30;20.90;89.50
14577;DHT22;7375;46.072;14.470;2022-10-10T00:10:57;20.90;89.60
14577;DHT22;7375;46.072;14.470;2022-10-10T00:13:23;20.90;89.60
14577;DHT22;7375;46.072;14.470;2022-10-10T00:15:50;20.90;89.70
14577;DHT22;7375;46.072;14.470;2022-10-10T00:18:17;20.90;89.70
14577;DHT22;7375;46.072;14.470;2022-10-10T00:20:44;20.90;89.70
14577;DHT22;7375;46.072;14.470;2022-10-10T00:23:10;20.90;89.80
14577;DHT22;7375;46.072;14.470;2022-10-10T00:25:38;20.90;89.90
14577;DHT22;7375;46.072;14.470;2022-10-10T00:28:05;20.90;90.00
14577;DHT22;7375;46.072;14.470;2022-10-10T00:30:32;20.90;89.80
14577;DHT22;7375;46.072;14.470;2022-10-10T00:32:59;20.90;90.00
14577;DHT22;7375;46.072;14.470;2022-10-10T00:35:26;20.90;90.00
14577;DHT22;7375;46.072;14.470;2022-10-10T00:37:53;20.90;90.00
14577;DHT22;7375;46.072;14.470;2022-10-10T00:40:19;20.90;90.00
14577;DHT22;7375;46.072;14.470;2022-10-10T00:42:48;20.90;90.00
14577;DHT22;7375;46.072;14.470;2022-10-10T00:45:25;20.90;90.10
14577;DHT22;7375;46.072;14.470;2022-10-10T00:47:54;20.90;90.10
14577;DHT22;7375;46.072;14.470;2022-10-10T00:50:22;20.90;90.10
14577;DHT22;7375;46.072;14.470;2022-10-10T00:52:49;20.90;90.10
14577;DHT22;7375;46.072;14.470;2022-10-10T00:55:16;20.90;90.20
14577;DHT22;7375;46.072;14.470;2022-10-10T00:57:43;20.90;90.20
14577;DHT22;7375;46.072;14.470;2022-10-10T01:00:12;20.90;90.30
14577;DHT22;7375;46.072;14.470;2022-10-10T01:02:38;20.90;90.30
14577;DHT22;7375;46.072;14.470;2022-10-10T01:05:05;20.90;90.30
14577;DHT22;7375;46.072;14.470;2022-10-10T01:07:32;20.90;90.30
14577;DHT22;7375;46.072;14.470;2022-10-10T01:10:00;20.90;90.30
14577;DHT22;7375;46.072;14.470;2022-10-10T01:12:29;20.90;90.30
14577;DHT22;7375;46.072;14.470;2022-10-10T01:14:58;20.90;90.30
14577;DHT22;7375;46.072;14.470;2022-10-10T01:17:33;20.90;90.20
14577;DHT22;7375;46.072;14.470;2022-10-10T01:20:11;20.90;90.30
14577;DHT22;7375;46.072;14.470;2022-10-10T01:22:43;20.90;90.30
14577;DHT22;7375;46.072;14.470;2022-10-10T01:25:16;20.90;90.30
14577;DHT22;7375;46.072;14.470;2022-10-10T01:27:46;20.90;90.30
14577;DHT22;7375;46.072;14.470;2022-10-10T01:30:15;20.90;90.20
14577;DHT22;7375;46.072;14.470;2022-10-10T01:32:45;20.80;90.20
14577;DHT22;7375;46.072;14.470;2022-10-10T01:35:17;20.90;90.30
14577;DHT22;7375;46.072;14.470;2022-10-10T01:37:51;20.80;90.20
14577;DHT22;7375;46.072;14.470;2022-10-10T01:40:22;20.90;90.30
14577;DHT22;7375;46.072;14.470;2022-10-10T01:42:50;20.80;90.20
14577;DHT22;7375;46.072;14.470;2022-10-10T01:45:20;20.90;90.30
14577;DHT22;7375;46.072;14.470;2022-10-10T01:47:46;20.90;90.30
14577;DHT22;7375;46.072;14.470;2022-10-10T01:50:14;20.90;90.30
14577;DHT22;7375;46.072;14.470;2022-10-10T01:52:43;20.90;90.30
14577;DHT22;7375;46.072;14.470;2022-10-10T01:55:16;20.90;90.30
14577;DHT22;7375;46.072;14.470;2022-10-10T01:57:48;20.80;90.30
14577;DHT22;7375;46.072;14.470;2022-10-10T02:00:22;20.80;90.30
14577;DHT22;7375;46.072;14.470;2022-10-10T02:02:50;20.80;90.30
14577;DHT22;7375;46.072;14.470;2022-10-10T02:05:19;20.90;90.30
14577;DHT22;7375;46.072;14.470;2022-10-10T02:07:49;20.90;90.30
14577;DHT22;7375;46.072;14.470;2022-10-10T02:10:19;20.80;90.30
14577;DHT22;7375;46.072;14.470;2022-10-10T02:12:46;20.90;90.40
14577;DHT22;7375;46.072;14.470;2022-10-10T02:15:15;20.90;90.40
14577;DHT22;7375;46.072;14.470;2022-10-10T02:17:44;20.80;90.30
14577;DHT22;7375;46.072;14.470;2022-10-10T02:20:12;20.90;90.40
14577;DHT22;7375;46.072;14.470;2022-10-10T02:22:39;20.80;90.50
14577;DHT22;7375;46.072;14.470;2022-10-10T02:25:07;20.90;90.50
14577;DHT22;7375;46.072;14.470;2022-10-10T02:27:35;20.90;90.50
14577;DHT22;7375;46.072;14.470;2022-10-10T02:30:03;20.90;90.50
14577;DHT22;7375;46.072;14.470;2022-10-10T02:32:31;20.90;90.50
14577;DHT22;7375;46.072;14.470;2022-10-10T02:35:03;20.90;90.50
14577;DHT22;7375;46.072;14.470;2022-10-10T02:37:32;20.80;90.40
14577;DHT22;7375;46.072;14.470;2022-10-10T02:40:00;20.80;90.40
14577;DHT22;7375;46.072;14.470;2022-10-10T02:42:27;20.80;90.50
14577;DHT22;7375;46.072;14.470;2022-10-10T02:44:55;20.80;90.40
14577;DHT22;7375;46.072;14.470;2022-10-10T02:47:22;20.90;90.50
14577;DHT22;7375;46.072;14.470;2022-10-10T02:49:49;20.90;90.50
14577;DHT22;7375;46.072;14.470;2022-10-10T02:52:17;20.90;90.50
14577;DHT22;7375;46.072;14.470;2022-10-10T02:54:44;20.90;90.50
14577;DHT22;7375;46.072;14.470;2022-10-10T02:57:11;20.90;90.50
14577;DHT22;7375;46.072;14.470;2022-10-10T02:59:38;20.90;90.50
14577;DHT22;7375;46.072;14.470;2022-10-10T03:02:04;20.80;90.50
14577;DHT22;7375;46.072;14.470;2022-10-10T03:04:32;20.90;90.50
14577;DHT22;7375;46.072;14.470;2022-10-10T03:07:00;20.80;90.40
14577;DHT22;7375;46.072;14.470;2022-10-10T03:09:28;20.80;90.40
14577;DHT22;7375;46.072;14.470;2022-10-10T03:11:55;20.80;90.40
14577;DHT22;7375;46.072;14.470;2022-10-10T03:14:22;20.90;90.50
14577;DHT22;7375;46.072;14.470;2022-10-10T03:16:49;20.80;90.50
14577;DHT22;7375;46.072;14.470;2022-10-10T03:19:15;20.90;90.50
14577;DHT22;7375;46.072;14.470;2022-10-10T03:21:42;20.90;90.50
14577;DHT22;7375;46.072;14.470;2022-10-10T03:24:09;20.90;90.40
14577;DHT22;7375;46.072;14.470;2022-10-10T03:26:37;20.80;90.40
14577;DHT22;7375;46.072;14.470;2022-10-10T03:29:03;20.90;90.40
14577;DHT22;7375;46.072;14.470;2022-10-10T03:31:30;20.90;90.40
14577;DHT22;7375;46.072;14.470;2022-10-10T03:33:57;20.90;90.40
14577;DHT22;7375;46.072;14.470;2022-10-10T03:36:24;20.90;90.40
14577;DHT22;7375;46.072;14.470;2022-10-10T03:38:51;20.90;90.30
14577;DHT22;7375;46.072;14.470;2022-10-10T03:41:18;20.90;90.30
14577;DHT22;7375;46.072;14.470;2022-10-10T03:43:46;20.80;90.30
14577;DHT22;7375;46.072;14.470;2022-10-10T03:46:12;20.90;90.30
14577;DHT22;7375;46.072;14.470;2022-10-10T03:48:39;20.90;90.30
14577;DHT22;7375;46.072;14.470;2022-10-10T03:51:06;20.90;90.20
14577;DHT22;7375;46.072;14.470;2022-10-10T03:53:33;20.90;90.20
14577;DHT22;7375;46.072;14.470;2022-10-10T03:55:59;20.90;90.20
14577;DHT22;7375;46.072;14.470;2022-10-10T03:58:26;20.90;90.20
14577;DHT22;7375;46.072;14.470;2022-10-10T04:00:55;20.90;90.10
14577;DHT22;7375;46.072;14.470;2022-10-10T04:03:22;20.90;90.10
14577;DHT22;7375;46.072;14.470;2022-10-10T04:05:49;20.90;90.10
14577;DHT22;7375;46.072;14.470;2022-10-10T04:08:16;20.90;90.00
14577;DHT22;7375;46.072;14.470;2022-10-10T04:10:43;20.90;90.00
14577;DHT22;7375;46.072;14.470;2022-10-10T04:13:13;20.90;90.10
14577;DHT22;7375;46.072;14.470;2022-10-10T04:15:39;20.90;90.00
14577;DHT22;7375;46.072;14.470;2022-10-10T04:18:07;20.90;90.10
14577;DHT22;7375;46.072;14.470;2022-10-10T04:20:34;20.90;90.00
14577;DHT22;7375;46.072;14.470;2022-10-10T04:23:01;20.90;90.00
14577;DHT22;7375;46.072;14.470;2022-10-10T04:25:28;20.90;90.10
14577;DHT22;7375;46.072;14.470;2022-10-10T04:27:54;20.90;90.10
14577;DHT22;7375;46.072;14.470;2022-10-10T04:30:21;20.90;90.10
14577;DHT22;7375;46.072;14.470;2022-10-10T04:32:48;20.90;90.10
14577;DHT22;7375;46.072;14.470;2022-10-10T04:35:16;20.90;90.10
14577;DHT22;7375;46.072;14.470;2022-10-10T04:37:43;20.90;90.10
14577;DHT22;7375;46.072;14.470;2022-10-10T04:40:10;20.90;90.10
14577;DHT22;7375;46.072;14.470;2022-10-10T04:42:37;20.90;90.10
14577;DHT22;7375;46.072;14.470;2022-10-10T04:45:03;21.00;90.20
14577;DHT22;7375;46.072;14.470;2022-10-10T04:47:31;21.00;90.10
14577;DHT22;7375;46.072;14.470;2022-10-10T04:49:58;21.00;90.20
14577;DHT22;7375;46.072;14.470;2022-10-10T04:52:26;21.00;90.10
14577;DHT22;7375;46.072;14.470;2022-10-10T04:54:53;21.00;90.00
14577;DHT22;7375;46.072;14.470;2022-10-10T04:57:19;20.90;89.90
14577;DHT22;7375;46.072;14.470;2022-10-10T04:59:46;20.90;89.90
14577;DHT22;7375;46.072;14.470;2022-10-10T05:02:13;20.90;90.00
14577;DHT22;7375;46.072;14.470;2022-10-10T05:04:39;20.90;90.00
14577;DHT22;7375;46.072;14.470;2022-10-10T05:07:06;20.90;90.00
14577;DHT22;7375;46.072;14.470;2022-10-10T05:09:34;20.90;90.00
14577;DHT22;7375;46.072;14.470;2022-10-10T05:12:01;20.90;90.20
14577;DHT22;7375;46.072;14.470;2022-10-10T05:14:28;20.90;90.10
14577;DHT22;7375;46.072;14.470;2022-10-10T05:16:55;20.90;90.10
14577;DHT22;7375;46.072;14.470;2022-10-10T05:19:21;20.90;90.00
14577;DHT22;7375;46.072;14.470;2022-10-10T05:21:48;20.90;90.00
14577;DHT22;7375;46.072;14.470;2022-10-10T05:24:15;20.90;90.00
14577;DHT22;7375;46.072;14.470;2022-10-10T05:26:43;20.90;90.00
14577;DHT22;7375;46.072;14.470;2022-10-10T05:29:10;21.00;90.10
14577;DHT22;7375;46.072;14.470;2022-10-10T05:31:36;20.90;90.00
14577;DHT22;7375;46.072;14.470;2022-10-10T05:34:03;20.90;90.00
14577;DHT22;7375;46.072;14.470;2022-10-10T05:36:30;20.90;90.00
14577;DHT22;7375;46.072;14.470;2022-10-10T05:38:57;21.00;90.10
14577;DHT22;7375;46.072;14.470;2022-10-10T05:41:24;21.00;90.00
14577;DHT22;7375;46.072;14.470;2022-10-10T05:43:52;21.00;90.00
14577;DHT22;7375;46.072;14.470;2022-10-10T05:46:18;21.00;90.00
14577;DHT22;7375;46.072;14.470;2022-10-10T05:48:47;21.00;89.80
14577;DHT22;7375;46.072;14.470;2022-10-10T05:51:14;21.00;89.60
14577;DHT22;7375;46.072;14.470;2022-10-10T05:53:41;21.00;89.60
14577;DHT22;7375;46.072;14.470;2022-10-10T05:56:07;21.00;89.80
14577;DHT22;7375;46.072;14.470;2022-10-10T05:58:35;21.00;89.80
14577;DHT22;7375;46.072;14.470;2022-10-10T06:01:04;21.00;89.80
14577;DHT22;7375;46.072;14.470;2022-10-10T06:03:34;21.00;89.80
14577;DHT22;7375;46.072;14.470;2022-10-10T06:06:01;21.10;90.00
14577;DHT22;7375;46.072;14.470;2022-10-10T06:08:33;21.10;90.00
14577;DHT22;7375;46.072;14.470;2022-10-10T06:11:01;21.10;90.00
14577;DHT22;7375;46.072;14.470;2022-10-10T06:13:28;21.10;89.70
14577;DHT22;7375;46.072;14.470;2022-10-10T06:15:54;21.10;89.20
14577;DHT22;7375;46.072;14.470;2022-10-10T06:18:22;21.10;89.30
14577;DHT22;7375;46.072;14.470;2022-10-10T06:20:49;21.10;89.20
14577;DHT22;7375;46.072;14.470;2022-10-10T06:23:16;21.10;89.00
14577;DHT22;7375;46.072;14.470;2022-10-10T06:25:44;21.10;88.60
14577;DHT22;7375;46.072;14.470;2022-10-10T06:28:11;21.20;88.50
14577;DHT22;7375;46.072;14.470;2022-10-10T06:30:38;21.20;88.40
14577;DHT22;7375;46.072;14.470;2022-10-10T06:33:05;21.20;88.10
14577;DHT22;7375;46.072;14.470;2022-10-10T06:35:33;21.20;88.10
14577;DHT22;7375;46.072;14.470;2022-10-10T06:38:03;21.20;87.90
14577;DHT22;7375;46.072;14.470;2022-10-10T06:40:30;21.20;87.70
14577;DHT22;7375;46.072;14.470;2022-10-10T06:42:57;21.20;87.40
14577;DHT22;7375;46.072;14.470;2022-10-10T06:45:24;21.20;87.30
14577;DHT22;7375;46.072;14.470;2022-10-10T06:47:51;21.30;87.20
14577;DHT22;7375;46.072;14.470;2022-10-10T06:50:19;21.30;87.00
14577;DHT22;7375;46.072;14.470;2022-10-10T06:52:47;21.30;86.90
14577;DHT22;7375;46.072;14.470;2022-10-10T06:55:14;21.30;86.40
14577;DHT22;7375;46.072;14.470;2022-10-10T06:57:41;21.30;86.20
14577;DHT22;7375;46.072;14.470;2022-10-10T07:00:08;21.30;86.30
14577;DHT22;7375;46.072;14.470;2022-10-10T07:02:35;21.30;86.20
14577;DHT22;7375;46.072;14.470;2022-10-10T07:05:05;21.30;86.20
14577;DHT22;7375;46.072;14.470;2022-10-10T07:07:32;21.30;86.20
14577;DHT22;7375;46.072;14.470;2022-10-10T07:10:00;21.30;86.20
14577;DHT22;7375;46.072;14.470;2022-10-10T07:12:26;21.30;86.40
14577;DHT22;7375;46.072;14.470;2022-10-10T07:14:54;21.30;86.40
14577;DHT22;7375;46.072;14.470;2022-10-10T07:17:20;21.30;86.60
14577;DHT22;7375;46.072;14.470;2022-10-10T07:19:47;21.30;86.40
14577;DHT22;7375;46.072;14.470;2022-10-10T07:22:14;21.40;86.40
14577;DHT22;7375;46.072;14.470;2022-10-10T07:24:41;21.40;86.10
14577;DHT22;7375;46.072;14.470;2022-10-10T07:27:09;21.50;85.80
14577;DHT22;7375;46.072;14.470;2022-10-10T07:29:39;21.60;85.20
14577;DHT22;7375;46.072;14.470;2022-10-10T07:32:05;21.70;84.90
14577;DHT22;7375;46.072;14.470;2022-10-10T07:34:35;21.80;84.20
14577;DHT22;7375;46.072;14.470;2022-10-10T07:37:05;21.90;83.60
14577;DHT22;7375;46.072;14.470;2022-10-10T07:39:31;22.00;82.90
14577;DHT22;7375;46.072;14.470;2022-10-10T07:41:58;22.10;82.30
14577;DHT22;7375;46.072;14.470;2022-10-10T07:44:26;22.20;82.50
14577;DHT22;7375;46.072;14.470;2022-10-10T07:46:53;22.50;81.60
14577;DHT22;7375;46.072;14.470;2022-10-10T07:49:20;22.70;79.60
14577;DHT22;7375;46.072;14.470;2022-10-10T07:51:47;22.70;78.70
14577;DHT22;7375;46.072;14.470;2022-10-10T07:54:13;22.90;79.30
14577;DHT22;7375;46.072;14.470;2022-10-10T07:56:40;23.20;77.10
14577;DHT22;7375;46.072;14.470;2022-10-10T07:59:07;23.40;75.70
14577;DHT22;7375;46.072;14.470;2022-10-10T08:01:35;23.50;75.00
14577;DHT22;7375;46.072;14.470;2022-10-10T08:04:02;23.50;73.90
14577;DHT22;7375;46.072;14.470;2022-10-10T08:06:28;23.60;73.70
14577;DHT22;7375;46.072;14.470;2022-10-10T08:08:55;23.40;73.60
14577;DHT22;7375;46.072;14.470;2022-10-10T08:11:22;23.30;74.40
14577;DHT22;7375;46.072;14.470;2022-10-10T08:13:49;23.10;75.20
14577;DHT22;7375;46.072;14.470;2022-10-10T08:16:16;23.10;76.10
14577;DHT22;7375;46.072;14.470;2022-10-10T08:18:44;23.10;76.10
14577;DHT22;7375;46.072;14.470;2022-10-10T08:21:11;23.10;76.00
14577;DHT22;7375;46.072;14.470;2022-10-10T08:23:38;23.10;76.20
14577;DHT22;7375;46.072;14.470;2022-10-10T08:26:09;23.10;76.10
14577;DHT22;7375;46.072;14.470;2022-10-10T08:28:36;23.10;75.90
14577;DHT22;7375;46.072;14.470;2022-10-10T08:31:03;23.30;75.80
14577;DHT22;7375;46.072;14.470;2022-10-10T08:33:30;23.50;74.60
14577;DHT22;7375;46.072;14.470;2022-10-10T08:35:59;23.80;73.20
14577;DHT22;7375;46.072;14.470;2022-10-10T08:38:29;24.10;71.60
14577;DHT22;7375;46.072;14.470;2022-10-10T08:40:56;24.20;71.00
14577;DHT22;7375;46.072;14.470;2022-10-10T08:43:25;24.40;70.50
14577;DHT22;7375;46.072;14.470;2022-10-10T08:45:54;24.40;70.20
14577;DHT22;7375;46.072;14.470;2022-10-10T08:48:22;24.50;69.60
14577;DHT22;7375;46.072;14.470;2022-10-10T08:50:50;24.30;69.90
14577;DHT22;7375;46.072;14.470;2022-10-10T08:53:21;24.20;70.30
14577;DHT22;7375;46.072;14.470;2022-10-10T08:55:49;24.40;69.70
14577;DHT22;7375;46.072;14.470;2022-10-10T08:58:18;24.50;69.50
14577;DHT22;7375;46.072;14.470;2022-10-10T09:00:49;24.50;69.10
14577;DHT22;7375;46.072;14.470;2022-10-10T09:03:18;24.50;68.70
14577;DHT22;7375;46.072;14.470;2022-10-10T09:05:48;24.50;68.70
14577;DHT22;7375;46.072;14.470;2022-10-10T09:08:23;24.50;68.90
14577;DHT22;7375;46.072;14.470;2022-10-10T09:10:54;24.50;68.80
14577;DHT22;7375;46.072;14.470;2022-10-10T09:13:25;24.50;68.80
14577;DHT22;7375;46.072;14.470;2022-10-10T09:15:54;24.30;69.30
14577;DHT22;7375;46.072;14.470;2022-10-10T09:18:25;24.20;69.70
14577;DHT22;7375;46.072;14.470;2022-10-10T09:20:55;24.30;69.30
14577;DHT22;7375;46.072;14.470;2022-10-10T09:23:27;24.40;69.10
14577;DHT22;7375;46.072;14.470;2022-10-10T09:25:56;24.30;69.20
14577;DHT22;7375;46.072;14.470;2022-10-10T09:28:28;24.20;69.30
14577;DHT22;7375;46.072;14.470;2022-10-10T09:30:58;24.10;69.50
14577;DHT22;7375;46.072;14.470;2022-10-10T09:33:27;24.10;69.70
14577;DHT22;7375;46.072;14.470;2022-10-10T09:35:57;24.10;69.70
14577;DHT22;7375;46.072;14.470;2022-10-10T09:38:29;24.20;69.60
14577;DHT22;7375;46.072;14.470;2022-10-10T09:40:57;24.20;69.00
14577;DHT22;7375;46.072;14.470;2022-10-10T09:43:28;24.20;69.20
14577;DHT22;7375;46.072;14.470;2022-10-10T09:45:55;24.10;69.40
14577;DHT22;7375;46.072;14.470;2022-10-10T09:48:26;24.00;69.80
14577;DHT22;7375;46.072;14.470;2022-10-10T09:50:54;24.00;69.90
14577;DHT22;7375;46.072;14.470;2022-10-10T09:53:21;23.90;70.00
14577;DHT22;7375;46.072;14.470;2022-10-10T09:55:49;23.90;70.50
14577;DHT22;7375;46.072;14.470;2022-10-10T09:58:23;23.90;70.70
14577;DHT22;7375;46.072;14.470;2022-10-10T10:00:51;23.90;70.50
14577;DHT22;7375;46.072;14.470;2022-10-10T10:03:19;23.90;70.20
14577;DHT22;7375;46.072;14.470;2022-10-10T10:05:52;24.00;70.00
14577;DHT22;7375;46.072;14.470;2022-10-10T10:08:21;24.00;70.00
14577;DHT22;7375;46.072;14.470;2022-10-10T10:10:53;24.00;70.10
14577;DHT22;7375;46.072;14.470;2022-10-10T10:13:24;23.90;70.10
14577;DHT22;7375;46.072;14.470;2022-10-10T10:15:52;24.00;70.20
14577;DHT22;7375;46.072;14.470;2022-10-10T10:18:22;23.90;70.20
14577;DHT22;7375;46.072;14.470;2022-10-10T10:20:52;23.90;70.00
14577;DHT22;7375;46.072;14.470;2022-10-10T10:23:25;23.90;70.00
14577;DHT22;7375;46.072;14.470;2022-10-10T10:25:57;24.00;70.00
14577;DHT22;7375;46.072;14.470;2022-10-10T10:28:25;24.00;70.00
14577;DHT22;7375;46.072;14.470;2022-10-10T10:30:54;24.00;69.90
14577;DHT22;7375;46.072;14.470;2022-10-10T10:33:25;24.00;69.60
14577;DHT22;7375;46.072;14.470;2022-10-10T10:35:57;24.00;69.70
14577;DHT22;7375;46.072;14.470;2022-10-10T10:38:32;23.90;70.20
14577;DHT22;7375;46.072;14.470;2022-10-10T10:41:03;23.80;70.80
14577;DHT22;7375;46.072;14.470;2022-10-10T10:46:10;23.70;70.10
14577;DHT22;7375;46.072;14.470;2022-10-10T10:48:43;23.70;68.00
14577;DHT22;7375;46.072;14.470;2022-10-10T10:51:29;23.70;67.40
14577;DHT22;7375;46.072;14.470;2022-10-10T10:53:59;23.60;61.90
14577;DHT22;7375;46.072;14.470;2022-10-10T10:56:31;23.60;59.60
14577;DHT22;7375;46.072;14.470;2022-10-10T10:59:02;23.60;58.20
14577;DHT22;7375;46.072;14.470;2022-10-10T11:01:34;23.50;56.60
14577;DHT22;7375;46.072;14.470;2022-10-10T11:04:02;23.60;57.00
14577;DHT22;7375;46.072;14.470;2022-10-10T11:06:35;23.50;57.00
14577;DHT22;7375;46.072;14.470;2022-10-10T11:09:04;23.50;56.40
14577;DHT22;7375;46.072;14.470;2022-10-10T11:11:38;23.50;55.30
14577;DHT22;7375;46.072;14.470;2022-10-10T11:14:11;23.50;55.10
14577;DHT22;7375;46.072;14.470;2022-10-10T11:16:43;23.50;55.30
14577;DHT22;7375;46.072;14.470;2022-10-10T11:19:15;23.50;57.70
14577;DHT22;7375;46.072;14.470;2022-10-10T11:21:44;23.50;62.00
14577;DHT22;7375;46.072;14.470;2022-10-10T11:24:12;23.50;63.30
14577;DHT22;7375;46.072;14.470;2022-10-10T11:26:45;23.50;63.80
14577;DHT22;7375;46.072;14.470;2022-10-10T11:29:14;23.50;64.00
14577;DHT22;7375;46.072;14.470;2022-10-10T11:31:42;23.50;64.10
14577;DHT22;7375;46.072;14.470;2022-10-10T11:34:11;23.50;64.20
14577;DHT22;7375;46.072;14.470;2022-10-10T11:36:40;23.50;64.30
14577;DHT22;7375;46.072;14.470;2022-10-10T11:39:10;23.50;64.30
14577;DHT22;7375;46.072;14.470;2022-10-10T11:41:39;23.40;64.30
14577;DHT22;7375;46.072;14.470;2022-10-10T11:44:09;23.50;64.70
14577;DHT22;7375;46.072;14.470;2022-10-10T11:46:38;23.40;64.80
14577;DHT22;7375;46.072;14.470;2022-10-10T11:49:06;23.40;65.00
14577;DHT22;7375;46.072;14.470;2022-10-10T11:51:37;23.30;65.20
14577;DHT22;7375;46.072;14.470;2022-10-10T11:54:06;23.30;65.40
14577;DHT22;7375;46.072;14.470;2022-10-10T11:56:36;23.30;65.50
14577;DHT22;7375;46.072;14.470;2022-10-10T11:59:04;23.20;65.40
14577;DHT22;7375;46.072;14.470;2022-10-10T12:01:35;23.20;65.70
14577;DHT22;7375;46.072;14.470;2022-10-10T12:04:03;23.20;66.00
14577;DHT22;7375;46.072;14.470;2022-10-10T12:06:31;23.20;66.10
14577;DHT22;7375;46.072;14.470;2022-10-10T12:09:00;23.10;66.00
14577;DHT22;7375;46.072;14.470;2022-10-10T12:11:29;23.10;66.10
14577;DHT22;7375;46.072;14.470;2022-10-10T12:13:57;23.10;66.20
14577;DHT22;7375;46.072;14.470;2022-10-10T12:16:26;23.10;66.90
14577;DHT22;7375;46.072;14.470;2022-10-10T12:18:55;23.10;66.60
14577;DHT22;7375;46.072;14.470;2022-10-10T12:21:25;23.10;66.70
14577;DHT22;7375;46.072;14.470;2022-10-10T12:24:00;23.10;66.80
14577;DHT22;7375;46.072;14.470;2022-10-10T12:29:10;23.10;67.00
14577;DHT22;7375;46.072;14.470;2022-10-10T12:31:37;23.00;67.10
14577;DHT22;7375;46.072;14.470;2022-10-10T12:34:08;23.00;67.10
14577;DHT22;7375;46.072;14.470;2022-10-10T12:42:27;23.00;67.30
14577;DHT22;7375;46.072;14.470;2022-10-10T12:44:54;23.00;67.40
14577;DHT22;7375;46.072;14.470;2022-10-10T12:47:33;23.00;67.50
14577;DHT22;7375;46.072;14.470;2022-10-10T12:50:04;23.00;67.50
14577;DHT22;7375;46.072;14.470;2022-10-10T12:52:32;23.00;67.60
14577;DHT22;7375;46.072;14.470;2022-10-10T12:55:02;23.00;67.80
14577;DHT22;7375;46.072;14.470;2022-10-10T12:57:30;23.00;67.80
14577;DHT22;7375;46.072;14.470;2022-10-10T12:59:57;23.00;67.90
14577;DHT22;7375;46.072;14.470;2022-10-10T13:02:29;23.00;67.90
14577;DHT22;7375;46.072;14.470;2022-10-10T13:04:56;22.90;67.90
14577;DHT22;7375;46.072;14.470;2022-10-10T13:07:25;22.90;68.00
14577;DHT22;7375;46.072;14.470;2022-10-10T13:09:53;22.90;68.00
14577;DHT22;7375;46.072;14.470;2022-10-10T13:12:21;22.90;68.10
14577;DHT22;7375;46.072;14.470;2022-10-10T13:14:48;22.90;68.20
14577;DHT22;7375;46.072;14.470;2022-10-10T13:20:00;22.90;68.30
14577;DHT22;7375;46.072;14.470;2022-10-10T13:22:28;22.90;68.40
14577;DHT22;7375;46.072;14.470;2022-10-10T13:24:55;22.90;68.50
14577;DHT22;7375;46.072;14.470;2022-10-10T13:27:24;22.90;68.50
14577;DHT22;7375;46.072;14.470;2022-10-10T13:29:51;22.90;68.50
14577;DHT22;7375;46.072;14.470;2022-10-10T13:32:19;22.90;68.60
14577;DHT22;7375;46.072;14.470;2022-10-10T13:34:49;22.80;68.60
14577;DHT22;7375;46.072;14.470;2022-10-10T13:37:17;22.80;68.60
14577;DHT22;7375;46.072;14.470;2022-10-10T13:39:46;22.80;68.70
14577;DHT22;7375;46.072;14.470;2022-10-10T13:42:23;22.80;68.70
14577;DHT22;7375;46.072;14.470;2022-10-10T13:44:52;22.80;68.80
14577;DHT22;7375;46.072;14.470;2022-10-10T13:50:11;22.80;68.90
14577;DHT22;7375;46.072;14.470;2022-10-10T13:52:43;22.80;68.90
14577;DHT22;7375;46.072;14.470;2022-10-10T13:55:14;22.80;69.00
14577;DHT22;7375;46.072;14.470;2022-10-10T13:57:41;22.80;68.90
14577;DHT22;7375;46.072;14.470;2022-10-10T14:00:13;22.80;68.90
14577;DHT22;7375;46.072;14.470;2022-10-10T14:02:44;22.80;68.80
14577;DHT22;7375;46.072;14.470;2022-10-10T14:05:20;22.80;68.90
14577;DHT22;7375;46.072;14.470;2022-10-10T14:07:48;22.80;68.90
14577;DHT22;7375;46.072;14.470;2022-10-10T14:10:20;22.80;69.00
14577;DHT22;7375;46.072;14.470;2022-10-10T14:12:58;22.80;69.00
14577;DHT22;7375;46.072;14.470;2022-10-10T14:15:29;22.80;69.00
14577;DHT22;7375;46.072;14.470;2022-10-10T14:17:58;22.80;69.10
14577;DHT22;7375;46.072;14.470;2022-10-10T14:23:01;22.70;69.10
14577;DHT22;7375;46.072;14.470;2022-10-10T14:25:32;22.70;69.10
14577;DHT22;7375;46.072;14.470;2022-10-10T14:27:58;22.70;69.20
14577;DHT22;7375;46.072;14.470;2022-10-10T14:30:31;22.70;69.20
14577;DHT22;7375;46.072;14.470;2022-10-10T14:33:00;22.70;69.30
14577;DHT22;7375;46.072;14.470;2022-10-10T14:35:27;22.70;69.30
14577;DHT22;7375;46.072;14.470;2022-10-10T14:37:56;22.70;69.30
14577;DHT22;7375;46.072;14.470;2022-10-10T14:40:23;22.70;69.40
14577;DHT22;7375;46.072;14.470;2022-10-10T14:42:53;22.70;69.50
14577;DHT22;7375;46.072;14.470;2022-10-10T14:45:20;22.70;69.50
14577;DHT22;7375;46.072;14.470;2022-10-10T14:47:47;22.70;69.50
14577;DHT22;7375;46.072;14.470;2022-10-10T14:50:33;22.60;69.50
14577;DHT22;7375;46.072;14.470;2022-10-10T14:53:10;22.60;69.60
14577;DHT22;7375;46.072;14.470;2022-10-10T14:55:49;22.60;69.70
14577;DHT22;7375;46.072;14.470;2022-10-10T14:58:21;22.60;69.70
14577;DHT22;7375;46.072;14.470;2022-10-10T15:00:50;22.60;69.70
14577;DHT22;7375;46.072;14.470;2022-10-10T15:03:21;22.60;69.80
14577;DHT22;7375;46.072;14.470;2022-10-10T15:05:48;22.60;69.90
14577;DHT22;7375;46.072;14.470;2022-10-10T15:08:15;22.60;69.90
14577;DHT22;7375;46.072;14.470;2022-10-10T15:10:44;22.50;70.00
14577;DHT22;7375;46.072;14.470;2022-10-10T15:13:16;22.50;70.20
14577;DHT22;7375;46.072;14.470;2022-10-10T15:15:47;22.50;70.30
14577;DHT22;7375;46.072;14.470;2022-10-10T15:18:14;22.50;70.40
14577;DHT22;7375;46.072;14.470;2022-10-10T15:20:44;22.40;70.40
14577;DHT22;7375;46.072;14.470;2022-10-10T15:23:30;22.40;70.40
14577;DHT22;7375;46.072;14.470;2022-10-10T15:26:02;22.40;70.50
14577;DHT22;7375;46.072;14.470;2022-10-10T15:28:29;22.40;70.60
14577;DHT22;7375;46.072;14.470;2022-10-10T15:30:57;22.40;70.70
14577;DHT22;7375;46.072;14.470;2022-10-10T15:33:24;22.40;70.80
14577;DHT22;7375;46.072;14.470;2022-10-10T15:35:57;22.40;70.90
14577;DHT22;7375;46.072;14.470;2022-10-10T15:38:24;22.30;70.90
14577;DHT22;7375;46.072;14.470;2022-10-10T15:40:55;22.30;71.00
14577;DHT22;7375;46.072;14.470;2022-10-10T15:43:22;22.30;71.20
14577;DHT22;7375;46.072;14.470;2022-10-10T15:45:48;22.30;71.40
14577;DHT22;7375;46.072;14.470;2022-10-10T15:48:17;22.30;71.50
14577;DHT22;7375;46.072;14.470;2022-10-10T15:50:43;22.30;71.70
14577;DHT22;7375;46.072;14.470;2022-10-10T15:53:10;22.30;71.90
14577;DHT22;7375;46.072;14.470;2022-10-10T15:55:40;22.30;72.00
14577;DHT22;7375;46.072;14.470;2022-10-10T15:58:07;21.40;59.50